Time;durP1;ratioP1;P1;durP2;ratioP2;P2;SDS_P1;SDS_P2;PMS_P1;PMS_P2;Temp;Humidity;BMP_temperature;BMP_pressure;BME280_temperature;BME280_humidity;BME280_pressure;Samples;Min_cycle;Max_cycle;Signal;HPM_P1;HPM_P2
2021/12/07 00:01:45;;;;;;;8.73;6.97;;;17.60;51.60;;;;;;4986109;28;20038;-62
2021/12/07 00:04:10;;;;;;;8.27;7.32;;;17.60;51.60;;;;;;4986162;28;20030;-62
2021/12/07 00:06:36;;;;;;;7.63;6.88;;;17.60;51.50;;;;;;4986116;28;20027;-63
2021/12/07 00:09:04;;;;;;;7.25;6.28;;;17.60;51.50;;;;;;4986077;28;20057;-60
2021/12/07 00:11:30;;;;;;;9.20;7.10;;;17.60;51.60;;;;;;5000527;28;20030;-61
2021/12/07 00:13:57;;;;;;;8.90;7.60;;;17.70;51.60;;;;;;5002015;28;20034;-63
2021/12/07 00:16:23;;;;;;;7.40;6.63;;;17.60;51.60;;;;;;4986774;28;20054;-63
2021/12/07 00:18:48;;;;;;;7.20;6.43;;;17.70;52.20;;;;;;4987059;28;20065;-62
2021/12/07 00:21:16;;;;;;;7.93;6.95;;;17.70;51.50;;;;;;4987891;28;20033;-61
2021/12/07 00:23:41;;;;;;;7.30;6.60;;;17.70;51.50;;;;;;4986937;28;20023;-62
2021/12/07 00:26:07;;;;;;;7.30;6.60;;;17.70;51.40;;;;;;4986879;28;20117;-61
2021/12/07 00:28:33;;;;;;;6.82;6.03;;;17.70;51.30;;;;;;4986808;28;20050;-62
2021/12/07 00:31:09;;;;;;;7.68;6.70;;;17.70;51.30;;;;;;4986355;28;20055;-62
2021/12/07 00:33:43;;;;;;;7.13;6.43;;;17.70;51.20;;;;;;4986194;28;20041;-63
2021/12/07 00:36:09;;;;;;;7.57;6.78;;;17.70;51.10;;;;;;4983070;28;20028;-63
2021/12/07 00:38:34;;;;;;;6.57;5.97;;;17.70;51.10;;;;;;4985832;28;20022;-62
2021/12/07 00:41:01;;;;;;;7.05;6.35;;;17.80;51.00;;;;;;5000988;28;20447;-64
2021/12/07 00:43:28;;;;;;;6.88;6.18;;;17.80;51.00;;;;;;5000631;28;20030;-62
2021/12/07 00:45:57;;;;;;;6.88;6.18;;;17.80;50.90;;;;;;4985942;28;20057;-63
2021/12/07 00:48:22;;;;;;;7.32;6.63;;;17.80;50.80;;;;;;4984841;28;20026;-64
2021/12/07 00:50:48;;;;;;;6.80;5.70;;;17.80;50.80;;;;;;4986306;28;20397;-62
2021/12/07 00:53:14;;;;;;;6.80;5.93;;;17.80;50.70;;;;;;4986375;28;20473;-60
2021/12/07 00:55:42;;;;;;;6.20;5.60;;;17.80;50.70;;;;;;4986187;28;20070;-63
2021/12/07 00:58:16;;;;;;;6.50;5.85;;;17.80;50.70;;;;;;5001557;28;20027;-63
2021/12/07 01:00:42;;;;;;;6.38;5.68;;;17.90;50.70;;;;;;4988244;28;20553;-64
2021/12/07 01:03:07;;;;;;;6.47;5.80;;;17.80;50.50;;;;;;4989131;28;20031;-63
2021/12/07 01:05:35;;;;;;;6.22;5.57;;;17.90;50.60;;;;;;4988904;28;20023;-60
2021/12/07 01:26:52;;;;;;;6.15;5.55;;;17.80;50.40;;;;;;4966553;28;20420;-64
2021/12/07 01:29:20;;;;;;;6.68;6.03;;;17.80;50.40;;;;;;4968370;28;20031;-63
2021/12/07 01:32:04;;;;;;;6.45;5.25;;;17.80;50.50;;;;;;4969074;28;20030;-62
2021/12/07 01:45:57;;;;;;;5.43;4.90;;;17.70;51.00;;;;;;5000886;28;20090;-64
2021/12/07 01:51:29;;;;;;;5.63;4.93;;;17.60;51.00;;;;;;4986811;28;20039;-61
2021/12/07 01:59:34;;;;;;;6.60;5.40;;;17.60;51.10;;;;;;4986515;28;20096;-63
2021/12/07 02:02:02;;;;;;;6.55;5.85;;;17.60;51.10;;;;;;5001863;28;20185;-64
2021/12/07 02:04:27;;;;;;;5.72;5.22;;;17.60;51.10;;;;;;5003159;28;20105;-62
2021/12/07 02:06:53;;;;;;;6.07;5.40;;;17.60;51.10;;;;;;4988429;28;20141;-62
2021/12/07 02:09:18;;;;;;;7.65;4.90;;;17.60;51.10;;;;;;4987358;28;20523;-63
2021/12/07 02:11:49;;;;;;;6.07;5.45;;;17.60;51.00;;;;;;4987603;28;20060;-63
2021/12/07 02:14:18;;;;;;;5.15;4.65;;;17.60;51.00;;;;;;4987678;28;20026;-61
2021/12/07 02:16:46;;;;;;;5.60;5.05;;;17.60;51.00;;;;;;5002633;28;20034;-62
2021/12/07 02:19:12;;;;;;;6.25;5.35;;;17.60;51.00;;;;;;4987755;28;20038;-62
2021/12/07 02:21:37;;;;;;;6.25;5.65;;;17.60;51.00;;;;;;4987605;28;20031;-63
2021/12/07 02:24:03;;;;;;;6.90;5.15;;;17.50;51.00;;;;;;4987559;28;20041;-63
2021/12/07 02:26:28;;;;;;;5.95;5.03;;;17.50;51.00;;;;;;5001533;28;20058;-62
2021/12/07 02:28:54;;;;;;;5.93;5.32;;;17.50;50.90;;;;;;5002547;28;20041;-64
2021/12/07 02:31:20;;;;;;;6.05;5.30;;;17.60;51.00;;;;;;4987738;28;20030;-63
2021/12/07 02:33:45;;;;;;;5.90;5.30;;;17.50;50.90;;;;;;4984762;28;20034;-65
2021/12/07 02:36:11;;;;;;;6.63;5.35;;;17.50;50.90;;;;;;4985650;28;20042;-64
2021/12/07 02:38:36;;;;;;;5.97;5.13;;;17.50;51.00;;;;;;4986857;28;20025;-63
2021/12/07 02:41:03;;;;;;;5.38;4.88;;;17.50;51.00;;;;;;4984658;28;20036;-64
2021/12/07 02:43:28;;;;;;;5.00;4.47;;;17.40;51.00;;;;;;4986994;28;20069;-64
2021/12/07 02:45:54;;;;;;;5.18;4.68;;;17.40;50.90;;;;;;4986773;28;20054;-64
2021/12/07 02:48:20;;;;;;;5.10;4.60;;;17.50;50.90;;;;;;4986497;28;20581;-65
2021/12/07 02:50:47;;;;;;;5.85;4.97;;;17.50;50.80;;;;;;5001623;28;20031;-65
2021/12/07 02:53:12;;;;;;;5.65;5.07;;;17.50;50.80;;;;;;4986255;28;20121;-65
2021/12/07 02:55:38;;;;;;;5.40;4.55;;;17.50;50.80;;;;;;5002649;28;20045;-64
2021/12/07 02:58:03;;;;;;;4.88;4.38;;;17.50;50.80;;;;;;4986848;28;20497;-65
2021/12/07 03:00:37;;;;;;;5.93;5.03;;;17.50;50.90;;;;;;5001059;28;20038;-65
2021/12/07 03:03:07;;;;;;;5.30;4.78;;;17.50;50.80;;;;;;4986913;28;20522;-64
2021/12/07 03:05:52;;;;;;;5.20;4.70;;;17.50;50.80;;;;;;4985054;28;20416;-65
2021/12/07 03:27:13;;;;;;;5.95;4.72;;;17.40;50.80;;;;;;4950837;28;20034;-65
2021/12/07 03:29:38;;;;;;;7.30;4.90;;;17.50;50.80;;;;;;4958031;28;20023;-64
2021/12/07 03:32:04;;;;;;;5.25;4.65;;;17.50;50.90;;;;;;4948748;28;20434;-64
2021/12/07 03:34:29;;;;;;;5.75;4.47;;;17.40;50.90;;;;;;4951036;28;20039;-64
2021/12/07 03:36:55;;;;;;;5.05;4.55;;;17.40;51.00;;;;;;4959072;28;20031;-64
2021/12/07 03:39:21;;;;;;;5.38;4.43;;;17.40;51.60;;;;;;4953300;28;20521;-65
2021/12/07 03:41:46;;;;;;;5.05;4.53;;;17.50;51.00;;;;;;4962710;28;20039;-65
2021/12/07 03:44:12;;;;;;;5.28;4.47;;;17.40;51.00;;;;;;4959367;28;20062;-65
2021/12/07 03:46:37;;;;;;;6.22;4.60;;;17.50;51.00;;;;;;4958880;28;20027;-64
2021/12/07 03:49:02;;;;;;;5.18;4.68;;;17.40;51.00;;;;;;4957424;28;20134;-65
2021/12/07 03:51:28;;;;;;;4.40;4.00;;;17.40;51.00;;;;;;4956366;28;20030;-65
2021/12/07 03:53:53;;;;;;;5.25;4.32;;;17.40;51.00;;;;;;4953343;28;20043;-65
2021/12/07 03:56:19;;;;;;;5.85;4.80;;;17.40;50.90;;;;;;4954056;28;20039;-64
2021/12/07 03:58:44;;;;;;;5.60;4.97;;;17.50;51.00;;;;;;4960166;28;20367;-64
2021/12/07 04:01:11;;;;;;;5.72;4.82;;;17.50;51.00;;;;;;4948710;28;20135;-65
2021/12/07 04:03:37;;;;;;;4.93;4.10;;;17.50;51.00;;;;;;4962194;28;20035;-65
2021/12/07 04:06:06;;;;;;;5.10;4.60;;;17.50;50.90;;;;;;4960399;28;20433;-64
2021/12/07 04:08:31;;;;;;;5.50;4.45;;;17.50;50.90;;;;;;4975336;28;20034;-65
2021/12/07 04:10:57;;;;;;;5.53;5.00;;;17.50;50.90;;;;;;4968357;28;20030;-65
2021/12/07 04:13:23;;;;;;;5.13;4.32;;;17.50;50.90;;;;;;4975065;28;20031;-64
2021/12/07 04:15:48;;;;;;;9.80;5.18;;;17.50;50.90;;;;;;4974279;28;20138;-65
2021/12/07 04:18:14;;;;;;;5.63;4.40;;;17.50;50.90;;;;;;4974846;28;20501;-65
2021/12/07 04:20:39;;;;;;;4.85;4.20;;;17.50;50.80;;;;;;4981566;28;20031;-65
2021/12/07 04:23:05;;;;;;;4.57;4.18;;;17.50;50.90;;;;;;4985765;28;20042;-65
2021/12/07 04:25:30;;;;;;;5.05;4.55;;;17.50;50.80;;;;;;4984851;28;20026;-65
2021/12/07 04:27:56;;;;;;;5.18;4.68;;;17.50;50.90;;;;;;4985938;28;20038;-64
2021/12/07 04:30:27;;;;;;;5.40;4.90;;;17.50;50.80;;;;;;4985720;28;20034;-65
2021/12/07 04:32:52;;;;;;;5.20;4.70;;;17.50;51.10;;;;;;4998289;28;20169;-64
2021/12/07 04:35:18;;;;;;;5.75;4.22;;;17.50;50.80;;;;;;5004787;28;20117;-65
2021/12/07 04:37:44;;;;;;;5.22;4.72;;;17.50;50.90;;;;;;4987715;28;20041;-65
2021/12/07 04:40:12;;;;;;;5.05;4.65;;;17.50;50.80;;;;;;5004063;28;20125;-65
2021/12/07 04:42:38;;;;;;;4.93;4.43;;;17.50;50.80;;;;;;4989261;28;20121;-64
2021/12/07 04:45:07;;;;;;;4.95;4.32;;;17.50;50.90;;;;;;5004220;28;20121;-64
2021/12/07 04:47:44;;;;;;;5.32;4.78;;;17.50;50.90;;;;;;4989862;28;20061;-64
2021/12/07 04:58:23;;;;;;;4.93;4.40;;;17.50;50.90;;;;;;4989792;28;20077;-65
2021/12/07 05:00:49;;;;;;;6.22;4.57;;;17.50;50.90;;;;;;4989134;28;20034;-65
2021/12/07 05:03:15;;;;;;;5.05;4.13;;;17.50;50.90;;;;;;4989351;28;20400;-65
2021/12/07 05:05:50;;;;;;;5.07;4.57;;;17.50;50.90;;;;;;4989360;28;20034;-65
2021/12/07 05:08:27;;;;;;;5.07;4.57;;;17.50;50.90;;;;;;4991500;28;20034;-64
2021/12/07 05:18:40;;;;;;;5.00;4.50;;;17.50;50.80;;;;;;5004398;28;20034;-65
2021/12/07 05:23:57;;;;;;;5.53;4.32;;;17.50;50.80;;;;;;4989449;28;20440;-64
2021/12/07 05:34:49;;;;;;;7.70;6.40;;;17.60;50.90;;;;;;4984728;28;20040;-67
2021/12/07 05:40:00;;;;;;;8.32;6.63;;;17.60;50.90;;;;;;4987388;28;20087;-67
2021/12/07 05:42:25;;;;;;;10.63;7.47;;;17.60;51.20;;;;;;4987051;28;20047;-66
2021/12/07 05:44:51;;;;;;;16.17;6.75;;;17.60;51.30;;;;;;4969957;28;20031;-67
2021/12/07 05:47:17;;;;;;;9.57;6.72;;;17.60;51.40;;;;;;4988525;28;20038;-65
2021/12/07 05:49:43;;;;;;;10.35;6.63;;;17.60;51.40;;;;;;4987413;28;20037;-67
2021/12/07 05:52:09;;;;;;;10.90;7.05;;;17.60;51.40;;;;;;4984016;28;20562;-68
2021/12/07 05:54:34;;;;;;;10.05;6.45;;;17.60;51.40;;;;;;5003398;28;20122;-67
2021/12/07 05:57:00;;;;;;;10.68;7.00;;;17.60;51.50;;;;;;4986632;28;20031;-68
2021/12/07 05:59:25;;;;;;;9.85;6.55;;;17.60;51.50;;;;;;4987980;28;20042;-65
2021/12/07 06:01:51;;;;;;;11.02;6.80;;;17.60;51.40;;;;;;4987451;28;20161;-66
2021/12/07 06:04:16;;;;;;;14.10;7.00;;;17.60;51.40;;;;;;5002905;28;20406;-67
2021/12/07 06:06:42;;;;;;;8.70;6.70;;;17.60;51.40;;;;;;4988011;28;20041;-65
2021/12/07 06:09:07;;;;;;;8.70;6.55;;;17.60;51.30;;;;;;4987375;28;20029;-66
2021/12/07 06:11:33;;;;;;;10.18;6.80;;;17.60;51.30;;;;;;4988488;28;20034;-65
2021/12/07 06:13:58;;;;;;;9.23;6.53;;;17.60;51.20;;;;;;5002245;28;20026;-65
2021/12/07 06:16:24;;;;;;;9.10;6.68;;;17.60;51.20;;;;;;4987543;28;20038;-68
2021/12/07 06:18:50;;;;;;;8.55;6.30;;;17.60;51.20;;;;;;4986272;28;20038;-68
2021/12/07 06:21:15;;;;;;;10.65;6.82;;;17.60;51.20;;;;;;5002662;28;20031;-67
2021/12/07 06:23:41;;;;;;;8.07;6.40;;;17.60;51.00;;;;;;4987001;28;20030;-67
2021/12/07 06:26:07;;;;;;;9.60;6.53;;;17.70;50.80;;;;;;4988184;28;20058;-67
2021/12/07 06:28:32;;;;;;;8.15;6.72;;;17.70;50.50;;;;;;5002703;28;20030;-65
2021/12/07 06:30:58;;;;;;;13.70;7.25;;;17.70;50.60;;;;;;5003417;28;20034;-66
2021/12/07 06:33:24;;;;;;;18.52;8.88;;;17.70;50.80;;;;;;4987966;28;20129;-65
2021/12/07 06:35:57;;;;;;;15.48;8.85;;;17.70;51.30;;;;;;4984385;28;20118;-64
2021/12/07 06:38:24;;;;;;;13.30;8.57;;;17.70;51.40;;;;;;4984788;28;20042;-64
2021/12/07 06:40:50;;;;;;;14.43;9.10;;;17.70;50.90;;;;;;4964540;28;20481;-64
2021/12/07 06:43:15;;;;;;;13.38;9.77;;;17.70;50.50;;;;;;4960446;28;20055;-64
2021/12/07 06:45:41;;;;;;;13.60;9.05;;;17.70;50.30;;;;;;4953547;28;20027;-65
2021/12/07 06:48:07;;;;;;;15.52;9.18;;;17.70;50.30;;;;;;4956139;28;20066;-65
2021/12/07 06:50:32;;;;;;;13.60;9.43;;;17.70;50.10;;;;;;4959706;28;20026;-65
2021/12/07 06:52:58;;;;;;;13.93;8.55;;;17.60;49.70;;;;;;4960734;28;20494;-65
2021/12/07 06:55:23;;;;;;;13.00;8.95;;;17.60;49.60;;;;;;4961247;28;20042;-64
2021/12/07 06:57:49;;;;;;;13.18;7.85;;;17.60;49.50;;;;;;4953892;28;20569;-65
2021/12/07 07:00:15;;;;;;;13.95;8.25;;;17.60;49.40;;;;;;4956232;28;20591;-65
2021/12/07 07:02:40;;;;;;;13.20;8.38;;;17.60;49.10;;;;;;4951418;28;20031;-64
2021/12/07 07:05:06;;;;;;;14.10;8.32;;;17.50;49.00;;;;;;4953945;28;20609;-65
2021/12/07 07:07:33;;;;;;;13.30;8.57;;;17.50;49.00;;;;;;4956500;28;20641;-65
2021/12/07 07:09:59;;;;;;;18.20;9.13;;;17.40;48.80;;;;;;4959352;28;20046;-67
2021/12/07 07:12:24;;;;;;;16.15;8.90;;;17.50;48.40;;;;;;4962594;28;20042;-66
2021/12/07 07:14:50;;;;;;;37.88;12.52;;;17.50;48.20;;;;;;4959690;28;20041;-64
2021/12/07 07:17:15;;;;;;;32.35;12.15;;;17.50;49.10;;;;;;4959357;28;20042;-66
2021/12/07 07:19:41;;;;;;;41.22;12.88;;;17.50;49.60;;;;;;4961707;28;20060;-66
2021/12/07 07:22:06;;;;;;;34.28;12.63;;;17.50;49.80;;;;;;4949810;28;20042;-66
2021/12/07 07:24:32;;;;;;;41.17;11.35;;;17.50;49.90;;;;;;4957048;28;20089;-67
2021/12/07 07:26:58;;;;;;;30.48;10.65;;;17.40;49.70;;;;;;4961573;28;20109;-67
2021/12/07 07:29:23;;;;;;;30.67;11.73;;;17.40;49.70;;;;;;4961286;28;20050;-67
2021/12/07 07:31:49;;;;;;;26.58;10.15;;;17.40;49.70;;;;;;4959725;28;20039;-66
2021/12/07 07:34:14;;;;;;;25.73;10.52;;;17.40;49.70;;;;;;4960309;28;20109;-67
2021/12/07 07:36:40;;;;;;;26.65;9.85;;;17.30;49.70;;;;;;4948504;28;20551;-67
2021/12/07 07:39:05;;;;;;;18.58;8.35;;;17.30;49.70;;;;;;4956751;28;20035;-66
2021/12/07 07:41:31;;;;;;;21.42;8.98;;;17.30;49.80;;;;;;4947853;28;20398;-67
2021/12/07 07:43:56;;;;;;;23.90;9.05;;;17.30;49.90;;;;;;4965320;28;20126;-67
2021/12/07 07:46:22;;;;;;;24.30;10.07;;;17.30;50.00;;;;;;4951477;28;20042;-67
2021/12/07 07:48:47;;;;;;;24.92;9.38;;;17.20;50.00;;;;;;4946709;28;20047;-67
2021/12/07 07:51:13;;;;;;;22.13;9.43;;;17.20;50.10;;;;;;4956392;28;20409;-66
2021/12/07 07:53:39;;;;;;;23.08;9.38;;;17.20;50.20;;;;;;4958752;28;20123;-67
2021/12/07 07:56:04;;;;;;;29.10;9.82;;;17.20;50.40;;;;;;4953116;28;20028;-67
2021/12/07 07:58:30;;;;;;;22.75;8.82;;;17.20;50.50;;;;;;4961256;28;20117;-67
2021/12/07 08:00:55;;;;;;;18.30;8.13;;;17.20;51.30;;;;;;4960928;28;20038;-67
2021/12/07 08:03:21;;;;;;;21.02;8.45;;;17.10;50.70;;;;;;4955740;28;20215;-67
2021/12/07 08:05:47;;;;;;;20.85;8.90;;;17.10;50.80;;;;;;4951980;28;20035;-67
2021/12/07 08:08:12;;;;;;;23.02;10.57;;;17.20;50.80;;;;;;4959892;28;20501;-67
2021/12/07 08:10:38;;;;;;;23.13;9.50;;;17.10;50.70;;;;;;4963650;28;20034;-66
2021/12/07 08:13:05;;;;;;;19.02;8.88;;;17.10;50.70;;;;;;4961604;28;20413;-66
2021/12/07 08:15:31;;;;;;;19.33;9.00;;;17.10;50.70;;;;;;4965010;28;20510;-66
2021/12/07 08:17:57;;;;;;;20.90;9.73;;;17.10;50.60;;;;;;4961596;28;20089;-67
2021/12/07 08:20:23;;;;;;;22.38;9.82;;;17.20;50.60;;;;;;4964762;28;20038;-67
2021/12/07 08:22:48;;;;;;;18.52;9.05;;;17.20;50.50;;;;;;4956671;28;20046;-66
2021/12/07 08:25:14;;;;;;;17.73;9.00;;;17.20;50.50;;;;;;4957547;28;20039;-66
2021/12/07 08:27:39;;;;;;;28.13;9.70;;;17.20;50.40;;;;;;4955325;28;20022;-66
2021/12/07 08:30:06;;;;;;;17.23;9.45;;;17.30;50.40;;;;;;4961121;28;20387;-66
2021/12/07 08:32:31;;;;;;;15.18;9.57;;;17.30;50.30;;;;;;4963589;28;20053;-66
2021/12/07 08:34:57;;;;;;;21.20;9.80;;;17.40;50.30;;;;;;4955821;28;20502;-67
2021/12/07 08:37:22;;;;;;;17.55;9.90;;;17.40;50.20;;;;;;4960902;28;20126;-66
2021/12/07 08:39:48;;;;;;;15.02;8.90;;;17.40;50.20;;;;;;4953111;28;20034;-67
2021/12/07 08:42:15;;;;;;;17.73;9.27;;;17.40;50.20;;;;;;4962987;28;20097;-67
2021/12/07 08:44:40;;;;;;;16.83;8.30;;;17.40;50.20;;;;;;4963617;28;20037;-67
2021/12/07 08:47:06;;;;;;;15.45;8.50;;;17.40;50.20;;;;;;4958572;28;20031;-67
2021/12/07 08:49:32;;;;;;;16.45;8.32;;;17.50;50.10;;;;;;4963132;28;20092;-68
2021/12/07 08:51:57;;;;;;;11.27;8.02;;;17.50;50.10;;;;;;4965486;28;20387;-67
2021/12/07 08:59:55;;;;;;;11.55;7.47;;;17.50;50.30;;;;;;4964204;28;20117;-67
2021/12/07 09:02:22;;;;;;;13.50;7.30;;;17.50;50.30;;;;;;4981965;28;20035;-66
2021/12/07 09:04:48;;;;;;;15.18;8.40;;;17.40;50.40;;;;;;4958588;28;20446;-66
2021/12/07 09:07:13;;;;;;;12.80;7.75;;;17.40;50.50;;;;;;4962712;28;20035;-67
2021/12/07 09:09:42;;;;;;;13.52;7.68;;;17.40;50.40;;;;;;4956747;28;20111;-66
2021/12/07 09:12:08;;;;;;;14.77;7.68;;;17.40;50.50;;;;;;4956902;28;20082;-66
2021/12/07 09:14:34;;;;;;;13.48;7.95;;;17.40;50.60;;;;;;4959154;28;20532;-66
2021/12/07 09:16:59;;;;;;;11.85;6.85;;;17.40;50.70;;;;;;4961760;28;20631;-66
2021/12/07 09:19:25;;;;;;;11.82;7.20;;;17.40;50.60;;;;;;4954344;28;20059;-66
2021/12/07 09:21:51;;;;;;;10.30;7.15;;;17.40;50.70;;;;;;4959602;28;20515;-67
2021/12/07 09:24:17;;;;;;;11.13;7.10;;;17.40;50.70;;;;;;4964260;28;20035;-67
2021/12/07 09:26:42;;;;;;;13.48;7.40;;;17.40;50.70;;;;;;4955683;28;20034;-68
2021/12/07 09:29:08;;;;;;;10.35;6.55;;;17.40;50.80;;;;;;4958874;28;20081;-67
2021/12/07 09:31:34;;;;;;;12.52;7.07;;;17.40;50.80;;;;;;4954989;28;20090;-66
2021/12/07 09:33:59;;;;;;;11.55;6.53;;;17.40;50.80;;;;;;4962345;28;20031;-66
2021/12/07 09:36:25;;;;;;;9.98;6.85;;;17.40;50.70;;;;;;4960121;28;20417;-66
2021/12/07 09:38:51;;;;;;;9.60;5.85;;;17.40;50.70;;;;;;4966423;28;20031;-66
2021/12/07 09:41:18;;;;;;;10.60;6.60;;;17.40;50.70;;;;;;4962725;28;20039;-67
2021/12/07 09:43:44;;;;;;;8.93;6.18;;;17.40;50.70;;;;;;4951879;28;20031;-66
2021/12/07 09:46:10;;;;;;;8.13;6.07;;;17.50;50.80;;;;;;4950550;28;20535;-66
2021/12/07 09:48:36;;;;;;;10.57;6.78;;;17.50;50.70;;;;;;4954935;28;20036;-65
2021/12/07 09:51:01;;;;;;;8.77;5.50;;;17.50;50.70;;;;;;4958293;28;20098;-65
2021/12/07 09:53:29;;;;;;;8.48;5.88;;;17.50;50.70;;;;;;4956950;28;20529;-65
2021/12/07 09:55:54;;;;;;;11.30;6.53;;;17.50;50.60;;;;;;4955106;28;20031;-66
2021/12/07 09:58:20;;;;;;;9.30;5.95;;;17.50;50.60;;;;;;4961534;28;20034;-65
2021/12/07 10:00:46;;;;;;;9.65;5.57;;;17.40;50.60;;;;;;4963364;28;20045;-66
2021/12/07 10:03:12;;;;;;;7.15;5.07;;;17.40;50.60;;;;;;4986309;28;20440;-66
2021/12/07 10:05:39;;;;;;;6.25;4.57;;;17.40;50.60;;;;;;4986340;28;20400;-66
2021/12/07 10:08:05;;;;;;;9.25;5.65;;;17.40;50.50;;;;;;5001319;28;20031;-65
2021/12/07 10:10:37;;;;;;;8.52;5.30;;;17.50;50.50;;;;;;5000431;28;20037;-66
2021/12/07 10:13:03;;;;;;;5.88;4.78;;;17.40;50.40;;;;;;5001287;28;20050;-66
2021/12/07 10:15:29;;;;;;;6.60;5.18;;;17.50;50.40;;;;;;4985862;28;20046;-64
2021/12/07 10:17:59;;;;;;;7.78;5.07;;;17.50;50.30;;;;;;5001089;28;20734;-66
2021/12/07 10:20:37;;;;;;;6.95;5.38;;;17.50;50.30;;;;;;5001417;28;20030;-65
2021/12/07 10:23:06;;;;;;;6.45;5.15;;;17.50;50.20;;;;;;4983746;28;20460;-67
2021/12/07 10:25:31;;;;;;;6.45;4.45;;;17.40;50.20;;;;;;4987090;28;20493;-66
2021/12/07 10:27:57;;;;;;;7.18;4.38;;;17.40;50.30;;;;;;4986458;28;20034;-66
2021/12/07 10:30:23;;;;;;;5.88;4.30;;;17.40;50.40;;;;;;5002384;28;20141;-65
2021/12/07 10:33:04;;;;;;;5.25;4.32;;;17.40;50.50;;;;;;4985609;28;20113;-67
2021/12/07 10:35:31;;;;;;;5.28;4.50;;;17.30;50.50;;;;;;4985749;28;20038;-67
2021/12/07 10:38:14;;;;;;;7.85;5.00;;;17.30;50.50;;;;;;4979304;28;20474;-65
2021/12/07 10:40:59;;;;;;;6.30;4.60;;;17.30;50.60;;;;;;4991282;28;20479;-64
2021/12/07 10:44:00;;;;;;;7.50;4.32;;;17.40;50.50;;;;;;4980050;28;20668;-66
2021/12/07 10:46:34;;;;;;;5.82;4.40;;;17.40;50.30;;;;;;4981721;28;20034;-65
2021/12/07 10:49:34;;;;;;;6.90;4.10;;;17.40;50.30;;;;;;4985679;28;20031;-66
2021/12/07 10:52:27;;;;;;;5.10;4.05;;;17.40;50.30;;;;;;4973414;28;20038;-66
2021/12/07 10:55:17;;;;;;;5.07;3.47;;;17.40;50.30;;;;;;4991742;28;20050;-62
2021/12/07 10:57:51;;;;;;;4.43;3.67;;;17.30;50.30;;;;;;4982543;28;20075;-64
2021/12/07 11:00:36;;;;;;;4.97;4.40;;;17.40;50.20;;;;;;4985449;28;20047;-65
2021/12/07 11:03:10;;;;;;;5.05;3.88;;;17.40;50.20;;;;;;4995347;28;20034;-65
2021/12/07 11:05:37;;;;;;;6.60;4.15;;;17.40;50.20;;;;;;5001573;28;20034;-65
2021/12/07 11:08:03;;;;;;;4.85;4.32;;;17.40;50.20;;;;;;4981600;28;20058;-64
2021/12/07 11:10:31;;;;;;;5.55;3.80;;;17.40;50.20;;;;;;4985579;28;20034;-66
2021/12/07 11:13:12;;;;;;;4.10;3.38;;;17.40;50.10;;;;;;4986046;28;20030;-64
2021/12/07 11:15:48;;;;;;;4.05;3.63;;;17.40;50.10;;;;;;4985656;28;20035;-65
2021/12/07 11:18:14;;;;;;;3.40;3.00;;;17.40;50.20;;;;;;4985338;28;20154;-65
2021/12/07 11:20:39;;;;;;;4.00;3.60;;;17.40;50.20;;;;;;4984911;28;20125;-63
2021/12/07 11:23:12;;;;;;;5.25;3.60;;;17.40;50.10;;;;;;4999976;28;20464;-65
2021/12/07 11:31:35;;;;;;;4.05;2.95;;;17.40;50.20;;;;;;4983546;28;20045;-65
2021/12/07 11:34:12;;;;;;;3.78;2.90;;;17.40;50.20;;;;;;4988346;28;20108;-64
2021/12/07 11:36:47;;;;;;;2.97;2.60;;;17.40;50.20;;;;;;4985097;28;20077;-66
2021/12/07 11:39:31;;;;;;;4.20;3.03;;;17.40;50.20;;;;;;4984522;28;21808;-66
2021/12/07 11:42:09;;;;;;;3.03;2.72;;;17.40;50.20;;;;;;4976312;28;20034;-65
2021/12/07 11:44:46;;;;;;;3.10;2.80;;;17.40;50.20;;;;;;4992740;28;20038;-65
2021/12/07 11:47:11;;;;;;;3.13;2.50;;;17.40;50.30;;;;;;4987915;28;20433;-65
2021/12/07 11:49:38;;;;;;;5.03;3.08;;;17.40;50.30;;;;;;4996670;28;20031;-64
2021/12/07 11:52:05;;;;;;;3.85;3.10;;;17.40;50.30;;;;;;4983120;28;20036;-65
2021/12/07 11:54:38;;;;;;;3.80;3.00;;;17.40;50.40;;;;;;4985288;28;20035;-65
2021/12/07 11:57:07;;;;;;;3.10;2.42;;;17.40;50.40;;;;;;4984843;28;20505;-65
2021/12/07 11:59:32;;;;;;;3.30;3.00;;;17.40;50.50;;;;;;4984534;28;20030;-65
2021/12/07 12:01:57;;;;;;;3.17;2.67;;;17.30;50.40;;;;;;4984929;28;20035;-65
2021/12/07 12:04:23;;;;;;;3.17;2.50;;;17.40;50.40;;;;;;4984556;28;20066;-63
2021/12/07 12:06:50;;;;;;;3.20;2.50;;;17.40;50.50;;;;;;4984653;28;20035;-66
2021/12/07 12:09:16;;;;;;;3.05;2.47;;;17.30;50.40;;;;;;4985184;28;20034;-63
2021/12/07 12:11:53;;;;;;;3.20;2.40;;;17.30;50.40;;;;;;4983605;28;20037;-65
2021/12/07 12:14:34;;;;;;;3.33;2.78;;;17.30;50.40;;;;;;4984145;28;20062;-63
2021/12/07 12:17:08;;;;;;;2.85;2.40;;;17.40;50.50;;;;;;4996738;28;20451;-64
2021/12/07 12:19:57;;;;;;;3.83;2.85;;;17.30;50.40;;;;;;4995179;28;20102;-64
2021/12/07 12:22:38;;;;;;;3.00;2.60;;;17.30;50.40;;;;;;4980742;28;20452;-63
2021/12/07 12:25:06;;;;;;;3.08;2.60;;;17.30;50.50;;;;;;4983113;28;20014;-65
2021/12/07 12:27:33;;;;;;;3.45;2.55;;;17.30;50.50;;;;;;4983428;28;20031;-66
2021/12/07 12:30:20;;;;;;;4.45;2.67;;;17.30;50.50;;;;;;4984433;28;20030;-64
2021/12/07 12:32:49;;;;;;;3.22;2.50;;;17.30;50.40;;;;;;4965002;28;20039;-66
2021/12/07 12:35:14;;;;;;;3.78;2.50;;;17.30;50.40;;;;;;4965197;28;20509;-62
2021/12/07 12:37:47;;;;;;;3.58;2.90;;;17.40;50.40;;;;;;4963737;28;20050;-66
2021/12/07 12:40:21;;;;;;;3.10;2.38;;;17.40;50.30;;;;;;4962573;28;20046;-63
2021/12/07 12:42:51;;;;;;;2.70;2.28;;;17.40;50.30;;;;;;4963803;28;20047;-63
2021/12/07 12:45:24;;;;;;;2.58;2.15;;;17.40;50.30;;;;;;4965243;28;20456;-62
2021/12/07 12:48:08;;;;;;;3.15;2.42;;;17.40;50.20;;;;;;4981024;28;20077;-66
2021/12/07 12:50:34;;;;;;;2.50;2.30;;;17.40;50.20;;;;;;4983267;28;20089;-66
2021/12/07 12:53:03;;;;;;;2.80;2.40;;;17.40;50.20;;;;;;4999702;28;20516;-66
2021/12/07 12:55:31;;;;;;;3.63;2.22;;;17.40;50.30;;;;;;4988285;28;20061;-66
2021/12/07 12:57:57;;;;;;;3.08;2.40;;;17.40;51.00;;;;;;5003293;28;20085;-67
2021/12/07 13:00:23;;;;;;;2.80;2.13;;;17.40;50.40;;;;;;4988006;28;20043;-66
2021/12/07 13:02:53;;;;;;;2.65;2.08;;;17.40;50.30;;;;;;4988862;28;20026;-66
2021/12/07 13:05:34;;;;;;;2.92;2.40;;;17.40;50.30;;;;;;4987647;28;20039;-66
2021/12/07 13:08:19;;;;;;;2.47;2.28;;;17.40;50.30;;;;;;5001237;28;20052;-66
2021/12/07 13:10:55;;;;;;;2.97;2.67;;;17.40;50.30;;;;;;4985238;28;20458;-66
2021/12/07 13:13:30;;;;;;;2.70;2.20;;;17.40;50.30;;;;;;4987321;28;20125;-66
2021/12/07 13:15:56;;;;;;;2.88;2.58;;;17.40;50.30;;;;;;4987401;28;20122;-66
2021/12/07 13:18:23;;;;;;;2.53;2.28;;;17.40;50.30;;;;;;4988160;28;20042;-66
2021/12/07 13:20:50;;;;;;;3.00;2.70;;;17.40;50.30;;;;;;5001667;28;20029;-67
2021/12/07 13:23:16;;;;;;;2.40;2.00;;;17.40;50.40;;;;;;4989022;28;20065;-66
2021/12/07 13:25:49;;;;;;;2.28;2.08;;;17.40;50.40;;;;;;5003780;28;20030;-66
2021/12/07 13:28:22;;;;;;;2.95;2.50;;;17.40;50.40;;;;;;4999983;28;20038;-66
2021/12/07 13:30:54;;;;;;;2.38;2.17;;;17.40;50.30;;;;;;4973132;28;20041;-66
2021/12/07 13:33:28;;;;;;;3.13;2.22;;;17.40;50.30;;;;;;4999740;28;20030;-66
2021/12/07 13:35:54;;;;;;;2.70;2.40;;;17.40;50.40;;;;;;4986643;28;20034;-66
2021/12/07 13:38:32;;;;;;;2.95;2.58;;;17.40;50.40;;;;;;4987841;28;20500;-66
2021/12/07 13:41:13;;;;;;;2.55;2.35;;;17.40;50.40;;;;;;5000149;28;20030;-66
2021/12/07 13:43:38;;;;;;;2.60;2.15;;;17.40;50.40;;;;;;4986761;28;20077;-66
2021/12/07 13:46:09;;;;;;;2.72;2.53;;;17.40;50.30;;;;;;4986225;28;20568;-66
2021/12/07 13:48:34;;;;;;;2.15;1.85;;;17.40;50.40;;;;;;4987174;28;20093;-66
2021/12/07 13:51:00;;;;;;;2.33;2.00;;;17.40;50.30;;;;;;4977513;28;20685;-67
2021/12/07 13:53:26;;;;;;;2.00;1.80;;;17.40;50.40;;;;;;4986819;28;20034;-66
2021/12/07 13:55:51;;;;;;;2.03;1.80;;;17.40;50.40;;;;;;4986433;28;20045;-66
2021/12/07 13:58:17;;;;;;;2.63;2.10;;;17.40;51.00;;;;;;4979198;28;20535;-66
2021/12/07 14:00:42;;;;;;;3.42;2.22;;;17.40;50.40;;;;;;4983772;28;20460;-66
2021/12/07 14:03:09;;;;;;;2.83;2.45;;;17.40;50.30;;;;;;4978547;28;20035;-66
2021/12/07 14:05:36;;;;;;;2.00;1.77;;;17.40;50.40;;;;;;4977619;28;20042;-66
2021/12/07 14:08:07;;;;;;;2.20;2.00;;;17.40;50.30;;;;;;4973912;28;20038;-66
2021/12/07 14:10:36;;;;;;;2.22;1.90;;;17.40;50.30;;;;;;4982698;28;20085;-65
2021/12/07 14:13:03;;;;;;;1.75;1.65;;;17.40;50.30;;;;;;4986490;28;20616;-67
2021/12/07 14:15:33;;;;;;;2.17;1.90;;;17.40;50.30;;;;;;4984717;28;20042;-66
2021/12/07 14:18:01;;;;;;;2.85;2.20;;;17.40;50.30;;;;;;4986669;28;20488;-67
2021/12/07 14:20:48;;;;;;;2.17;1.98;;;17.40;50.30;;;;;;4985529;28;20173;-67
2021/12/07 14:23:22;;;;;;;2.63;1.98;;;17.40;50.30;;;;;;4986296;28;20054;-67
2021/12/07 14:25:51;;;;;;;2.05;1.85;;;17.40;50.20;;;;;;4986612;28;20078;-67
2021/12/07 14:28:46;;;;;;;1.83;1.73;;;17.40;50.30;;;;;;4985978;28;20042;-68